Airfield :
LOGIN :

Register | Disclaimer

   EN    FR    IT 

 










Legend :    VFR   Marginal VFR   IFR   Intensive IFR   Very Intensive IFR
Visi :
Ceiling :
>= 8 km
>= 3000ft
5 to 8 km
1000 to 3000 ft
1500m to 5 km
500 to 1000 ft
800 to 1500m
200 to 500 ft
< 800m
< 200 ft
Symbols :   Thunderstorms  Fog  Heavy snow  Heavy precipitations  Wind > 20 kt
SIGMETs :     Misc.  Thunderstorms  Icing  Turbulence  Mountain Waves  Volcanic Ashes






- Airport Elevation : 32 ft
- IATA code : LKZ


EGUL - RAF Lakenheath

CURRENT METAR :
  • 200756Z AUTO 25008KT 9999 CLR 15/11 A3005 RMK AO2 SLPNO T01520108 $

EXPIRED METARs :
  • 200656Z AUTO 27006KT 9999 CLR 14/12 A3005 RMK AO2 SLPNO T01420115 $
  • 200556Z AUTO 22008KT 9999 CLR 14/12 A3006 RMK AO2 SLPNO T01360116 10136 20126 55001 $

TAF AMD TAF EGUL
Valid from the 19 at 11:00 until the 20 at 11:00 UTC


191135Z 1911/2011 29009KT 9999 BKN029 QNH3001INS
BECMG 1912/1913 28012KT 9999 SCT050 BKN200 QNH3006INS
BECMG 1921/1922 15006KT 9999 SCT050 BKN200 QNH3011INS
BECMG 2002/2003 20006KT 8000 BR BKN070 QNH3005INS
BECMG 2006/2007 26009KT 9999 NSW FEW015 BKN045 QNH3004INS
BECMG 2007/2008 26009KT 8000 -SHRA BKN030 QNH3004INS TX20/1913Z TN11/2004Z LAST NO AMDS AFT 1911 NEXT 2305



MET'MAP, your aeronautical weather chart ! - Copyright ORBIFLY December 2007 - Disclaimer

ORBIFLY MET'MAP TEAM :

Programming & Development : Alexandra Zaïnal
Original concept : Baudouin d'Aumeries
Technical & hardware support : Manuel Goepfert
Assistance : Marc-Olivier Méhu

Contact : metmap@orbifly.com




SOURCES & CREDITS :

   NOAA